Time;durP1;ratioP1;P1;durP2;ratioP2;P2;SDS_P1;SDS_P2;PMS_P1;PMS_P2;Temp;Humidity;BMP_temperature;BMP_pressure;BME280_temperature;BME280_humidity;BME280_pressure;Samples;Min_cycle;Max_cycle;Signal;HPM_P1;HPM_P2
2023/11/07 00:01:49;0.00;0.00;0.62;0.00;0.00;0.62;3.00;1.57;;;23.40;29.30;;;;;;2265871;61;20829;-63
2023/11/07 00:04:34;0.00;0.00;0.62;0.00;0.00;0.62;2.80;1.30;;;23.40;29.30;;;;;;2265774;61;20380;-61
2023/11/07 00:07:19;0.00;0.00;0.62;0.00;0.00;0.62;2.83;0.97;;;23.40;29.20;;;;;;2266593;61;20360;-62
2023/11/07 00:10:05;0.00;0.00;0.62;0.00;0.00;0.62;2.60;1.10;;;23.40;29.30;;;;;;2265575;61;20380;-66
2023/11/07 00:12:50;0.00;0.00;0.62;0.00;0.00;0.62;1.70;0.97;;;23.40;29.20;;;;;;2265691;61;20406;-67
2023/11/07 00:15:36;0.00;0.00;0.62;0.00;0.00;0.62;1.80;0.97;;;23.40;29.20;;;;;;2265521;61;21033;-65
2023/11/07 00:18:21;0.00;0.00;0.62;0.00;0.00;0.62;2.80;1.30;;;23.40;29.30;;;;;;2264418;61;20367;-65
2023/11/07 00:21:07;0.00;0.00;0.62;0.00;0.00;0.62;1.90;1.37;;;23.40;29.30;;;;;;2265172;61;20360;-62
2023/11/07 00:23:51;0.00;0.00;0.62;0.00;0.00;0.62;3.60;1.27;;;23.40;29.30;;;;;;2264753;61;20414;-61
2023/11/07 00:26:36;0.00;0.00;0.62;0.00;0.00;0.62;3.00;1.37;;;23.30;28.80;;;;;;2264742;61;20414;-67
2023/11/07 00:29:23;0.00;0.00;0.62;0.00;0.00;0.62;4.73;1.30;;;23.30;28.50;;;;;;2264356;61;20367;-62
2023/11/07 00:32:08;0.00;0.00;0.62;0.00;0.00;0.62;6.47;1.93;;;23.20;28.20;;;;;;2264552;61;20778;-66
2023/11/07 00:34:53;0.00;0.00;0.62;0.00;0.00;0.62;2.27;1.03;;;23.10;28.00;;;;;;2264308;61;21024;-62
2023/11/07 00:37:39;0.00;0.00;0.62;0.00;0.00;0.62;3.20;1.37;;;22.90;27.90;;;;;;2264498;61;20892;-60
2023/11/07 00:40:24;0.00;0.00;0.62;0.00;0.00;0.62;5.60;1.73;;;22.90;28.00;;;;;;2264783;61;20414;-61
2023/11/07 00:43:09;0.00;0.00;0.62;0.00;0.00;0.62;3.97;1.43;;;22.70;28.10;;;;;;2264735;61;20901;-63
2023/11/07 00:45:53;0.00;0.00;0.62;0.00;0.00;0.62;10.70;1.83;;;22.60;28.00;;;;;;2264564;61;20467;-65
2023/11/07 00:48:39;0.00;0.00;0.62;0.00;0.00;0.62;4.80;1.60;;;22.40;27.90;;;;;;2263873;61;20368;-63
2023/11/07 00:51:24;0.00;0.00;0.62;0.00;0.00;0.62;7.40;1.77;;;22.30;28.20;;;;;;2263997;61;20468;-64
2023/11/07 00:54:11;0.00;0.00;0.62;0.00;0.00;0.62;4.00;1.80;;;22.20;28.10;;;;;;2264548;61;20387;-61
2023/11/07 00:56:55;0.00;0.00;0.62;0.00;0.00;0.62;3.77;1.73;;;22.10;28.10;;;;;;2264765;61;20680;-65
2023/11/07 00:59:40;0.00;0.00;0.62;0.00;0.00;0.62;2.60;1.50;;;22.00;28.30;;;;;;2264010;61;20360;-65
2023/11/07 01:02:25;0.00;0.00;0.62;0.00;0.00;0.62;5.17;1.60;;;21.80;28.30;;;;;;2264236;61;21006;-62
2023/11/07 01:05:11;0.00;0.00;0.62;0.00;0.00;0.62;4.70;1.80;;;21.70;28.30;;;;;;2264670;61;20404;-63
2023/11/07 01:07:56;0.00;0.00;0.62;0.00;0.00;0.62;3.90;1.20;;;21.60;28.40;;;;;;2263790;61;20368;-62
2023/11/07 01:10:40;0.00;0.00;0.62;0.00;0.00;0.62;3.40;1.60;;;21.50;28.60;;;;;;2264374;61;20549;-64
2023/11/07 01:13:27;0.00;0.00;0.62;0.00;0.00;0.62;4.87;1.73;;;21.40;28.70;;;;;;2264539;61;20873;-64
2023/11/07 01:16:12;0.00;0.00;0.62;0.00;0.00;0.62;7.10;1.70;;;21.30;28.80;;;;;;2264275;61;20419;-63
2023/11/07 01:18:57;0.00;0.00;0.62;0.00;0.00;0.62;3.97;1.53;;;21.20;29.00;;;;;;2263734;61;20400;-64
2023/11/07 01:21:43;0.00;0.00;0.62;0.00;0.00;0.62;3.77;1.70;;;21.10;29.00;;;;;;2263950;61;20359;-61
2023/11/07 01:24:28;0.00;0.00;0.62;0.00;0.00;0.62;4.60;1.80;;;21.10;29.20;;;;;;2264159;61;20570;-62
2023/11/07 01:27:12;0.00;0.00;0.62;0.00;0.00;0.62;3.37;2.00;;;21.00;29.20;;;;;;2264108;61;20353;-63
2023/11/07 01:29:57;0.00;0.00;0.62;0.00;0.00;0.62;3.83;1.90;;;20.90;29.10;;;;;;2263961;61;20388;-64
2023/11/07 01:32:42;0.00;0.00;0.62;0.00;0.00;0.62;2.90;1.40;;;20.80;29.20;;;;;;2264581;61;20368;-61
2023/11/07 01:35:26;0.00;0.00;0.62;0.00;0.00;0.62;4.17;1.50;;;20.80;29.30;;;;;;2264515;61;20450;-63
2023/11/07 01:38:12;0.00;0.00;0.62;0.00;0.00;0.62;6.00;1.90;;;20.70;29.40;;;;;;2264051;61;20361;-62
2023/11/07 01:40:57;0.00;0.00;0.62;0.00;0.00;0.62;2.40;1.20;;;20.60;29.50;;;;;;2264436;61;20392;-64
2023/11/07 01:43:42;0.00;0.00;0.62;0.00;0.00;0.62;2.70;1.70;;;20.60;29.60;;;;;;2264277;61;20367;-63
2023/11/07 01:46:27;0.00;0.00;0.62;0.00;0.00;0.62;3.50;1.60;;;20.50;29.70;;;;;;2264636;61;20449;-63
2023/11/07 01:49:11;0.00;0.00;0.62;0.00;0.00;0.62;2.27;1.27;;;20.50;29.60;;;;;;2263782;61;20364;-66
2023/11/07 01:51:57;0.00;0.00;0.62;0.00;0.00;0.62;3.97;1.67;;;20.40;29.70;;;;;;2263948;61;20412;-61
2023/11/07 01:54:44;0.00;0.00;0.62;0.00;0.00;0.62;3.83;1.53;;;20.30;29.70;;;;;;2264440;61;20400;-63
2023/11/07 01:57:29;0.00;0.00;0.62;0.00;0.00;0.62;3.27;1.40;;;20.30;29.70;;;;;;2264329;61;20406;-63
2023/11/07 02:00:17;0.00;0.00;0.62;0.00;0.00;0.62;4.00;1.40;;;20.20;29.70;;;;;;2263768;61;20391;-62
2023/11/07 02:03:02;0.00;0.00;0.62;0.00;0.00;0.62;4.17;1.40;;;20.20;29.90;;;;;;2263933;61;20363;-62
2023/11/07 02:05:47;0.00;0.00;0.62;0.00;0.00;0.62;2.17;1.23;;;20.10;29.90;;;;;;2264390;61;20380;-62
2023/11/07 02:08:31;0.00;0.00;0.62;0.00;0.00;0.62;5.67;2.60;;;20.10;30.00;;;;;;2264117;61;20882;-63
2023/11/07 02:11:17;0.00;0.00;0.62;0.00;0.00;0.62;2.57;1.30;;;20.00;30.00;;;;;;2264427;61;20449;-64
2023/11/07 02:14:02;0.00;0.00;0.62;0.00;0.00;0.62;3.80;1.80;;;19.90;30.00;;;;;;2262449;61;20401;-61
2023/11/07 02:16:46;0.00;0.00;0.62;0.00;0.00;0.62;2.20;1.60;;;19.90;30.70;;;;;;2259690;61;20376;-63
2023/11/07 02:19:32;0.00;0.00;0.62;0.00;0.00;0.62;5.17;1.37;;;19.80;30.10;;;;;;2259938;61;20479;-64
2023/11/07 02:22:18;0.00;0.00;0.62;0.00;0.00;0.62;4.07;1.70;;;19.80;30.30;;;;;;2256711;61;20364;-64
2023/11/07 02:25:11;0.00;0.00;0.62;0.00;0.00;0.62;2.73;1.30;;;19.70;30.40;;;;;;2257114;61;20919;-64
2023/11/07 02:27:56;0.00;0.00;0.62;0.00;0.00;0.62;7.63;1.90;;;19.70;30.40;;;;;;2260115;61;20369;-62
2023/11/07 02:30:40;0.00;0.00;0.62;0.00;0.00;0.62;3.50;1.50;;;19.60;30.40;;;;;;2260419;61;20397;-63
2023/11/07 02:33:25;0.00;0.00;0.62;0.00;0.00;0.62;5.03;1.90;;;19.60;30.60;;;;;;2262679;61;20401;-63
2023/11/07 02:36:10;0.00;0.00;0.62;0.00;0.00;0.62;2.00;1.37;;;19.60;30.80;;;;;;2260101;61;20892;-63
2023/11/07 02:38:55;0.00;0.00;0.62;0.00;0.00;0.62;3.90;1.70;;;19.50;30.80;;;;;;2260028;61;20364;-63
2023/11/07 02:41:44;0.00;0.00;0.62;0.00;0.00;0.62;3.90;2.00;;;19.50;30.90;;;;;;2260458;61;20357;-63
2023/11/07 02:44:29;0.00;0.00;0.62;0.00;0.00;0.62;2.73;1.47;;;19.40;30.80;;;;;;2260172;61;20439;-59
2023/11/07 02:47:14;0.00;0.00;0.62;0.00;0.00;0.62;4.00;1.80;;;19.40;30.90;;;;;;2264431;61;20364;-62
2023/11/07 02:49:58;0.00;0.00;0.62;0.00;0.00;0.62;5.67;1.60;;;19.40;31.10;;;;;;2264127;61;20392;-61
2023/11/07 02:52:43;0.00;0.00;0.62;0.00;0.00;0.62;3.73;1.80;;;19.40;31.10;;;;;;2265044;61;20774;-61
2023/11/07 02:55:28;0.00;0.00;0.62;0.00;0.00;0.62;4.40;1.60;;;19.40;31.10;;;;;;2264454;61;20857;-62
2023/11/07 02:58:15;0.00;0.00;0.62;0.00;0.00;0.62;3.20;1.80;;;19.30;31.10;;;;;;2263967;61;20452;-62
2023/11/07 03:01:00;0.00;0.00;0.62;0.00;0.00;0.62;4.50;1.60;;;19.30;31.20;;;;;;2264985;61;20414;-63
2023/11/07 03:03:44;0.00;0.00;0.62;0.00;0.00;0.62;5.93;2.03;;;19.30;31.30;;;;;;2264761;61;20372;-64
2023/11/07 03:06:32;0.00;0.00;0.62;0.00;0.00;0.62;5.77;2.00;;;19.30;31.30;;;;;;2264748;61;20367;-63
2023/11/07 03:09:17;0.00;0.00;0.62;0.00;0.00;0.62;4.33;1.80;;;19.30;31.30;;;;;;2264622;61;20359;-61
2023/11/07 03:12:02;0.00;0.00;0.62;0.00;0.00;0.62;4.13;1.53;;;19.20;31.30;;;;;;2264860;61;20927;-62
2023/11/07 03:14:48;0.00;0.00;0.62;0.00;0.00;0.62;6.93;1.97;;;19.20;31.30;;;;;;2264817;61;20486;-63
2023/11/07 03:17:33;0.00;0.00;0.62;0.00;0.00;0.62;4.77;1.60;;;19.20;31.30;;;;;;2264424;61;20364;-61
2023/11/07 03:20:17;0.00;0.00;0.62;0.00;0.00;0.62;3.40;1.50;;;19.20;31.40;;;;;;2264630;61;20766;-60
2023/11/07 03:23:02;0.00;0.00;0.62;0.00;0.00;0.62;3.43;1.60;;;19.20;31.50;;;;;;2265065;61;20375;-62
2023/11/07 03:25:47;0.00;0.00;0.62;0.00;0.00;0.62;4.20;1.60;;;19.20;31.50;;;;;;2265009;61;20399;-64
2023/11/07 03:28:32;0.00;0.00;0.62;0.00;0.00;0.62;3.00;1.53;;;19.20;31.60;;;;;;2263907;61;20950;-61
2023/11/07 03:31:18;0.00;0.00;0.62;0.00;0.00;0.62;3.30;1.40;;;19.10;31.40;;;;;;2265126;61;20441;-62
2023/11/07 03:34:03;0.00;0.00;0.62;0.00;0.00;0.62;4.20;1.37;;;19.10;31.50;;;;;;2264865;61;20928;-62
2023/11/07 03:36:48;0.00;0.00;0.62;0.00;0.00;0.62;3.30;1.50;;;19.10;31.60;;;;;;2264876;61;20923;-62
2023/11/07 03:39:32;0.00;0.00;0.62;0.00;0.00;0.62;2.80;1.50;;;19.10;31.60;;;;;;2264357;61;20364;-63
2023/11/07 03:42:17;0.00;0.00;0.62;0.00;0.00;0.62;2.73;1.60;;;19.10;31.70;;;;;;2264779;61;20452;-61
2023/11/07 03:45:03;0.00;0.00;0.62;0.00;0.00;0.62;3.53;1.40;;;19.10;31.50;;;;;;2264909;61;20475;-62
2023/11/07 03:47:48;0.00;0.00;0.62;0.00;0.00;0.62;3.37;1.43;;;19.10;31.60;;;;;;2264735;61;20368;-63
2023/11/07 03:50:33;0.00;0.00;0.62;0.00;0.00;0.62;3.00;1.33;;;19.10;31.70;;;;;;2264537;61;20517;-62
2023/11/07 03:53:18;0.00;0.00;0.62;0.00;0.00;0.62;3.43;1.60;;;19.10;31.70;;;;;;2264911;61;20411;-62
2023/11/07 03:56:04;0.00;0.00;0.62;0.00;0.00;0.62;2.90;1.30;;;19.10;31.70;;;;;;2264854;61;20457;-61
2023/11/07 03:58:49;0.00;0.00;0.62;0.00;0.00;0.62;3.43;1.27;;;19.10;31.80;;;;;;2264381;61;20426;-61
2023/11/07 04:01:35;0.00;0.00;0.62;0.00;0.00;0.62;2.43;1.30;;;19.10;31.80;;;;;;2264702;61;20418;-63
2023/11/07 04:04:21;0.00;0.00;0.62;0.00;0.00;0.62;3.47;1.60;;;19.10;31.70;;;;;;2264046;61;20846;-63
2023/11/07 04:07:08;0.00;0.00;0.62;0.00;0.00;0.62;2.90;1.30;;;19.10;31.70;;;;;;2264762;61;20367;-63
2023/11/07 04:09:53;0.00;0.00;0.62;0.00;0.00;0.62;3.53;1.20;;;19.10;31.80;;;;;;2264430;61;20879;-63
2023/11/07 04:12:37;0.00;0.00;0.62;0.00;0.00;0.62;2.80;1.30;;;19.10;31.70;;;;;;2264511;61;20360;-64
2023/11/07 04:15:23;0.00;0.00;0.62;0.00;0.00;0.62;3.80;1.40;;;19.10;31.70;;;;;;2264663;61;20429;-63
2023/11/07 04:18:09;0.00;0.00;0.62;0.00;0.00;0.62;3.17;1.83;;;19.10;31.70;;;;;;2264476;61;20472;-62
2023/11/07 04:20:57;0.00;0.00;0.62;0.00;0.00;0.62;2.37;1.53;;;19.10;31.50;;;;;;2264611;61;20494;-61
2023/11/07 04:23:41;0.00;0.00;0.62;0.00;0.00;0.62;5.40;2.50;;;19.10;31.60;;;;;;2264636;61;20399;-64
2023/11/07 04:26:27;0.00;0.00;0.62;0.00;0.00;0.62;4.93;3.80;;;19.10;31.70;;;;;;2264795;61;20916;-64
2023/11/07 04:29:11;0.00;0.00;0.62;0.00;0.00;0.62;9.47;6.37;;;19.00;31.70;;;;;;2264420;61;20390;-62
2023/11/07 04:31:56;0.00;0.00;0.62;0.00;0.00;0.62;12.90;7.10;;;19.00;31.70;;;;;;2264272;61;20414;-63
2023/11/07 04:34:41;0.00;0.00;0.62;0.00;0.00;0.62;12.20;9.53;;;19.00;31.70;;;;;;2264554;61;20449;-63
2023/11/07 04:37:27;0.00;0.00;0.62;0.00;0.00;0.62;16.40;10.63;;;19.00;31.60;;;;;;2264784;61;20888;-63
2023/11/07 04:40:12;0.00;0.00;0.62;0.00;0.00;0.62;17.07;10.27;;;19.00;31.60;;;;;;2263974;61;20394;-61
2023/11/07 04:42:57;0.00;0.00;0.62;0.00;0.00;0.62;10.80;9.10;;;19.00;31.40;;;;;;2264601;61;20406;-63
2023/11/07 04:45:42;0.00;0.00;0.62;0.00;0.00;0.62;10.87;7.83;;;19.00;31.60;;;;;;2264484;61;20383;-62
2023/11/07 04:48:26;0.00;0.00;0.62;0.00;0.00;0.62;10.10;8.00;;;18.90;31.50;;;;;;2264323;61;20368;-66
2023/11/07 04:51:12;0.00;0.00;0.62;0.00;0.00;0.62;11.13;6.83;;;18.90;31.60;;;;;;2264750;61;20388;-63
2023/11/07 04:53:59;0.00;0.00;0.62;0.00;0.00;0.62;7.80;6.60;;;18.90;31.70;;;;;;2264729;61;20459;-64
2023/11/07 04:56:44;0.00;0.00;0.62;0.00;0.00;0.62;7.57;6.77;;;19.00;32.10;;;;;;2264473;61;20409;-63
2023/11/07 04:59:29;0.00;0.00;0.62;0.00;0.00;0.62;7.50;6.40;;;19.00;32.20;;;;;;2264745;61;20407;-63
2023/11/07 05:02:13;0.00;0.00;0.62;0.00;0.00;0.62;7.43;5.80;;;19.10;32.30;;;;;;2264101;61;20363;-63
2023/11/07 05:04:58;0.00;0.00;0.62;0.00;0.00;0.62;9.27;6.33;;;19.10;32.30;;;;;;2264332;61;20464;-64
2023/11/07 05:07:45;0.00;0.00;0.62;0.00;0.00;0.62;8.43;6.40;;;19.20;32.40;;;;;;2264743;61;20403;-61
2023/11/07 05:10:31;0.00;0.00;0.62;0.00;0.00;0.62;6.90;5.87;;;19.20;32.40;;;;;;2265058;61;20380;-61
2023/11/07 05:13:15;0.00;0.00;0.62;0.00;0.00;0.62;7.43;6.03;;;19.30;32.50;;;;;;2264787;61;20368;-66
2023/11/07 05:16:00;0.00;0.00;0.62;0.00;0.00;0.62;7.50;5.77;;;19.30;32.40;;;;;;2265052;61;20681;-60
2023/11/07 05:18:44;0.00;0.00;0.62;0.00;0.00;0.62;8.47;6.10;;;19.40;32.40;;;;;;2264303;61;21006;-61
2023/11/07 05:21:29;0.00;0.00;0.62;0.00;0.00;0.62;7.60;5.17;;;19.40;32.40;;;;;;2264766;61;20374;-59
2023/11/07 05:24:15;0.00;0.00;0.62;0.00;0.00;0.62;9.50;6.10;;;19.50;32.40;;;;;;2264888;61;20422;-63
2023/11/07 05:27:01;0.00;0.00;0.62;0.00;0.00;0.62;8.57;5.90;;;19.50;32.30;;;;;;2264747;61;20364;-63
2023/11/07 05:29:47;0.00;0.00;0.62;0.00;0.00;0.62;7.90;5.73;;;19.60;32.30;;;;;;2264693;61;20398;-66
2023/11/07 05:32:32;0.00;0.00;0.62;0.00;0.00;0.62;6.70;5.07;;;19.60;32.20;;;;;;2265498;61;20399;-58
2023/11/07 05:35:17;0.00;0.00;0.62;0.00;0.00;0.62;6.93;5.27;;;19.70;32.30;;;;;;2264970;61;20487;-61
2023/11/07 05:38:02;0.00;0.00;0.62;0.00;0.00;0.62;8.97;4.87;;;19.70;32.30;;;;;;2264566;61;20895;-59
2023/11/07 05:40:47;0.00;0.00;0.62;0.00;0.00;0.62;6.23;4.83;;;19.80;32.30;;;;;;2264645;61;20833;-62
2023/11/07 05:43:33;0.00;0.00;0.62;0.00;0.00;0.62;7.57;5.30;;;19.80;32.20;;;;;;2265427;61;20367;-64
2023/11/07 05:46:18;0.00;0.00;0.62;0.00;0.00;0.62;7.90;5.33;;;19.90;32.30;;;;;;2265322;61;20899;-60
2023/11/07 05:49:02;0.00;0.00;0.62;0.00;0.00;0.62;5.17;4.63;;;19.90;32.20;;;;;;2264786;61;20758;-62
2023/11/07 05:51:47;0.00;0.00;0.62;0.00;0.00;0.62;4.97;4.00;;;20.00;32.20;;;;;;2265262;61;20534;-64
2023/11/07 05:54:31;0.00;0.00;0.62;0.00;0.00;0.62;5.97;4.97;;;20.00;32.20;;;;;;2265306;61;20839;-62
2023/11/07 05:57:19;0.00;0.00;0.62;0.00;0.00;0.62;6.30;4.37;;;20.10;32.20;;;;;;2264825;61;20410;-62
2023/11/07 06:00:08;0.00;0.00;0.62;0.00;0.00;0.62;6.73;4.47;;;20.10;32.10;;;;;;2265030;61;20586;-59
2023/11/07 06:02:56;0.00;0.00;0.62;0.00;0.00;0.62;4.93;4.43;;;20.10;32.10;;;;;;2264875;61;20372;-61
2023/11/07 06:05:45;0.00;0.00;0.62;0.00;0.00;0.62;6.23;4.23;;;20.20;32.10;;;;;;2265741;61;21019;-60
2023/11/07 06:08:29;0.00;0.00;0.62;0.00;0.00;0.62;5.60;4.93;;;20.20;32.10;;;;;;2265049;61;20367;-60
2023/11/07 06:11:15;0.00;0.00;0.62;0.00;0.00;0.62;6.57;4.30;;;20.30;32.00;;;;;;2265193;61;20388;-61
2023/11/07 06:14:00;0.00;0.00;0.62;0.00;0.00;0.62;4.43;3.97;;;20.30;31.90;;;;;;2264695;61;20856;-60
2023/11/07 06:16:46;0.00;0.00;0.62;0.00;0.00;0.62;4.70;4.20;;;20.30;31.90;;;;;;2264472;61;20412;-62
2023/11/07 06:19:31;0.00;0.00;0.62;0.00;0.00;0.62;7.27;4.37;;;20.30;31.80;;;;;;2263765;61;20406;-62
2023/11/07 06:22:16;0.00;0.00;0.62;0.00;0.00;0.62;5.03;4.23;;;20.40;31.70;;;;;;2264376;61;20444;-63
2023/11/07 06:25:00;0.00;0.00;0.62;0.00;0.00;0.62;5.40;4.30;;;20.40;31.70;;;;;;2263627;61;20406;-62
2023/11/07 06:27:47;0.00;0.00;0.62;0.00;0.00;0.62;7.20;4.10;;;20.40;31.60;;;;;;2265226;61;20417;-62
2023/11/07 06:30:31;0.00;0.00;0.62;0.00;0.00;0.62;4.03;2.93;;;20.50;31.60;;;;;;2264941;61;20391;-63
2023/11/07 06:33:19;0.00;0.00;0.62;0.00;0.00;0.62;5.80;4.03;;;20.50;31.50;;;;;;2264818;61;20400;-62
2023/11/07 06:36:04;0.00;0.00;0.62;0.00;0.00;0.62;4.50;3.43;;;20.50;31.50;;;;;;2264826;61;20399;-60
2023/11/07 06:38:49;0.00;0.00;0.62;0.00;0.00;0.62;3.93;3.53;;;20.50;31.40;;;;;;2264846;61;20414;-62
2023/11/07 06:41:34;0.00;0.00;0.62;0.00;0.00;0.62;4.37;3.37;;;20.60;31.40;;;;;;2264806;61;20444;-68
2023/11/07 06:44:19;0.00;0.00;0.62;0.00;0.00;0.62;4.27;3.13;;;20.60;31.30;;;;;;2265089;61;20398;-62
2023/11/07 06:47:03;0.00;0.00;0.62;0.00;0.00;0.62;4.67;3.77;;;20.70;31.40;;;;;;2264788;61;20410;-63
2023/11/07 06:49:49;0.00;0.00;0.62;0.00;0.00;0.62;4.80;4.30;;;20.70;31.40;;;;;;2264884;61;20891;-65
2023/11/07 06:52:38;0.00;0.00;0.62;0.00;0.00;0.62;4.00;3.10;;;20.70;31.30;;;;;;2264998;61;20368;-62
2023/11/07 06:55:24;0.00;0.00;0.62;0.00;0.00;0.62;4.17;2.97;;;20.70;31.20;;;;;;2264641;61;20422;-61
2023/11/07 06:58:09;0.00;0.00;0.62;0.00;0.00;0.62;4.23;3.20;;;20.70;31.10;;;;;;2264564;61;20407;-63
2023/11/07 07:00:54;0.00;0.00;0.62;0.00;0.00;0.62;4.43;3.30;;;20.70;31.10;;;;;;2264934;61;20414;-62
2023/11/07 07:03:42;0.00;0.00;0.62;0.00;0.00;0.62;4.67;3.77;;;20.80;31.20;;;;;;2264861;55;20363;31
2023/11/07 07:06:28;0.00;0.00;0.62;0.00;0.00;0.62;3.70;2.73;;;20.80;31.20;;;;;;2250884;61;20383;-63
2023/11/07 07:09:13;0.00;0.00;0.62;0.00;0.00;0.62;3.20;2.70;;;20.80;31.10;;;;;;2248630;61;20503;-63
2023/11/07 07:11:58;0.00;0.00;0.62;0.00;0.00;0.62;5.10;3.13;;;20.80;31.00;;;;;;2248580;61;20450;-64
2023/11/07 07:14:42;0.00;0.00;0.62;0.00;0.00;0.62;4.10;3.13;;;20.80;31.00;;;;;;2250524;61;20413;-63
2023/11/07 07:17:27;0.00;0.00;0.62;0.00;0.00;0.62;4.10;3.30;;;20.90;31.10;;;;;;2252711;61;20390;-61
2023/11/07 07:20:12;0.00;0.00;0.62;0.00;0.00;0.62;3.50;2.80;;;20.90;31.00;;;;;;2252563;61;20433;-63
2023/11/07 07:22:58;0.00;0.00;0.62;0.00;0.00;0.62;4.23;2.80;;;20.90;31.00;;;;;;2252827;61;20458;-61
2023/11/07 07:25:43;0.00;0.00;0.62;0.00;0.00;0.62;3.97;2.67;;;20.90;31.00;;;;;;2252607;61;20406;-62
2023/11/07 07:28:28;0.00;0.00;0.62;0.00;0.00;0.62;2.93;2.33;;;21.00;31.00;;;;;;2252419;61;20394;-62
2023/11/07 07:31:16;0.00;0.00;0.62;0.00;0.00;0.62;3.97;2.97;;;21.00;31.00;;;;;;2252796;61;20484;-60
2023/11/07 07:34:04;0.00;0.00;0.62;0.00;0.00;0.62;3.47;2.67;;;21.00;31.00;;;;;;2252620;61;20390;-63
2023/11/07 07:36:50;0.00;0.00;0.62;0.00;0.00;0.62;3.77;3.07;;;21.00;31.00;;;;;;2252636;61;20847;-62
2023/11/07 07:39:36;0.00;0.00;0.62;0.00;0.00;0.62;3.57;2.40;;;21.00;31.00;;;;;;2252274;61;20367;-63
2023/11/07 07:42:23;0.00;0.00;0.62;0.00;0.00;0.62;3.50;2.43;;;21.00;30.90;;;;;;2252288;61;20379;-61
2023/11/07 07:45:08;0.00;0.00;0.62;0.00;0.00;0.62;3.57;2.77;;;21.10;30.90;;;;;;2252408;61;20382;-62
2023/11/07 07:47:53;0.00;0.00;0.62;0.00;0.00;0.62;3.50;2.80;;;21.10;30.90;;;;;;2251918;61;20513;-63
2023/11/07 07:50:41;0.00;0.00;0.62;0.00;0.00;0.62;4.07;3.10;;;21.10;30.80;;;;;;2252688;61;20387;-62
2023/11/07 07:53:26;0.00;0.00;0.62;0.00;0.00;0.62;3.90;2.90;;;21.10;30.80;;;;;;2252920;61;20906;-62
2023/11/07 07:56:13;0.00;0.00;0.62;0.00;0.00;0.62;3.50;3.10;;;21.10;30.80;;;;;;2252762;61;20363;-62
2023/11/07 07:58:57;0.00;0.00;0.62;0.00;0.00;0.62;3.67;2.40;;;21.10;30.70;;;;;;2252602;61;20410;-62
2023/11/07 08:01:42;0.00;0.00;0.62;0.00;0.00;0.62;3.73;2.40;;;21.20;30.80;;;;;;2252391;61;20371;-62
2023/11/07 08:04:31;0.00;0.00;0.62;0.00;0.00;0.62;3.70;3.00;;;21.20;30.80;;;;;;2252711;61;20489;-62
2023/11/07 08:07:16;0.00;0.00;0.62;0.00;0.00;0.62;4.60;2.67;;;21.20;30.70;;;;;;2252261;61;20386;-63
2023/11/07 08:10:01;0.00;0.00;0.62;0.00;0.00;0.62;4.33;3.27;;;21.20;30.60;;;;;;2252065;61;20931;-63
2023/11/07 08:12:49;0.00;0.00;0.62;0.00;0.00;0.62;4.33;2.63;;;21.20;30.60;;;;;;2252796;61;20982;-62
2023/11/07 08:15:35;0.00;0.00;0.62;0.00;0.00;0.62;4.50;3.60;;;21.20;30.60;;;;;;2252497;61;20417;-63
2023/11/07 08:18:21;0.00;0.00;0.62;0.00;0.00;0.62;4.10;3.00;;;21.20;30.60;;;;;;2252444;61;20366;-60
2023/11/07 08:21:07;0.00;0.00;0.62;0.00;0.00;0.62;3.47;2.77;;;21.20;30.60;;;;;;2252705;61;20363;-63
2023/11/07 08:23:52;0.00;0.00;0.62;0.00;0.00;0.62;3.57;2.73;;;21.20;30.60;;;;;;2252669;61;20386;-63
2023/11/07 08:26:36;0.00;0.00;0.62;0.00;0.00;0.62;4.77;4.10;;;21.30;30.60;;;;;;2252757;61;20377;-63
2023/11/07 08:29:22;0.00;0.00;0.62;0.00;0.00;0.62;5.60;3.43;;;21.30;30.60;;;;;;2252282;61;20374;-62
2023/11/07 08:32:07;0.00;0.00;0.62;0.00;0.00;0.62;4.33;3.37;;;21.30;30.60;;;;;;2252474;61;20792;-62
2023/11/07 08:34:51;0.00;0.00;0.62;0.00;0.00;0.62;4.63;3.17;;;21.30;30.60;;;;;;2252672;61;20407;-63
2023/11/07 08:37:36;0.00;0.00;0.62;0.00;0.00;0.62;4.33;3.50;;;21.30;30.60;;;;;;2252425;61;20438;-63
2023/11/07 08:40:22;0.00;0.00;0.62;0.00;0.00;0.62;4.20;3.50;;;21.40;30.60;;;;;;2252589;61;20852;-62
2023/11/07 08:43:07;0.00;0.00;0.62;0.00;0.00;0.62;5.50;3.60;;;21.30;30.60;;;;;;2252841;61;20382;-63
2023/11/07 08:45:53;0.00;0.00;0.62;0.00;0.00;0.62;4.00;3.30;;;21.30;30.60;;;;;;2252084;61;20390;-63
2023/11/07 08:48:44;0.00;0.00;0.62;0.00;0.00;0.62;4.73;3.30;;;21.40;30.60;;;;;;2252023;61;20371;-61
2023/11/07 08:51:29;0.00;0.00;0.62;0.00;0.00;0.62;4.40;3.47;;;21.40;30.60;;;;;;2252643;61;20387;-62
2023/11/07 08:54:13;0.00;0.00;0.62;0.00;0.00;0.62;5.20;3.60;;;21.40;30.50;;;;;;2252408;61;20498;-62
2023/11/07 08:56:58;0.00;0.00;0.62;0.00;0.00;0.62;5.10;3.60;;;21.40;30.50;;;;;;2252656;61;20374;-62
2023/11/07 08:59:44;0.00;0.00;0.62;0.00;0.00;0.62;5.47;3.67;;;21.40;30.50;;;;;;2252304;61;20818;-61
2023/11/07 09:02:30;0.00;0.00;0.62;0.00;0.00;0.62;4.37;3.20;;;21.40;30.40;;;;;;2252330;61;20366;-64
2023/11/07 09:05:16;0.00;0.00;0.62;0.00;0.00;0.62;4.80;3.50;;;21.40;31.10;;;;;;2252548;61;20915;-63
2023/11/07 09:08:04;0.00;0.00;0.62;0.00;0.00;0.62;5.07;3.53;;;21.50;30.50;;;;;;2252105;61;20370;-63
2023/11/07 09:10:49;0.00;0.00;0.62;0.00;0.00;0.62;4.80;3.37;;;21.50;30.40;;;;;;2252338;61;20437;-62
2023/11/07 09:13:33;0.00;0.00;0.62;0.00;0.00;0.62;5.30;4.10;;;21.50;30.40;;;;;;2252676;61;20374;-63
2023/11/07 09:16:18;0.00;0.00;0.62;0.00;0.00;0.62;4.17;3.20;;;21.50;30.40;;;;;;2252357;61;20402;-61
2023/11/07 09:19:04;0.00;0.00;0.62;0.00;0.00;0.62;5.10;3.40;;;21.50;30.40;;;;;;2252290;61;20374;-59
2023/11/07 09:21:48;0.00;0.00;0.62;0.00;0.00;0.62;4.73;3.47;;;21.50;30.40;;;;;;2252447;61;20425;-62
2023/11/07 09:24:33;0.00;0.00;0.62;0.00;0.00;0.62;3.57;3.20;;;21.60;30.50;;;;;;2254820;61;20414;-61
2023/11/07 09:27:18;0.00;0.00;0.62;0.00;0.00;0.62;4.77;3.77;;;21.50;30.40;;;;;;2252197;61;20816;-62
2023/11/07 09:30:04;0.00;0.00;0.62;0.00;0.00;0.62;4.90;3.60;;;21.60;30.50;;;;;;2252017;61;20371;-62
2023/11/07 09:32:50;0.00;0.00;0.62;0.00;0.00;0.62;4.53;3.20;;;21.60;30.60;;;;;;2252360;61;20390;-62
2023/11/07 09:35:37;0.00;0.00;0.62;0.00;0.00;0.62;4.13;3.60;;;21.60;30.50;;;;;;2252253;61;20491;-65
2023/11/07 09:38:21;0.00;0.00;0.62;0.00;0.00;0.62;3.60;2.90;;;21.60;30.40;;;;;;2252046;61;20466;-60
2023/11/07 09:41:06;0.00;0.00;0.62;0.00;0.00;0.62;4.10;2.77;;;21.60;30.40;;;;;;2252542;61;20358;-59
2023/11/07 09:43:51;0.00;0.00;0.62;0.00;0.00;0.62;4.57;2.80;;;21.60;30.40;;;;;;2252326;61;20779;-61
2023/11/07 09:46:37;0.00;0.00;0.62;0.00;0.00;0.62;4.23;2.93;;;21.70;30.60;;;;;;2252457;61;20413;-59
2023/11/07 09:49:22;0.00;0.00;0.62;0.00;0.00;0.62;4.50;2.97;;;21.70;30.80;;;;;;2251885;61;20410;-57
2023/11/07 09:52:10;0.00;0.00;0.62;0.00;0.00;0.62;3.30;2.43;;;21.70;30.60;;;;;;2252216;61;20798;-59
2023/11/07 09:54:58;0.00;0.00;0.62;0.00;0.00;0.62;4.37;2.73;;;21.70;30.60;;;;;;2252280;61;20471;-61
2023/11/07 09:57:48;0.00;0.00;0.62;0.00;0.00;0.62;3.73;2.97;;;21.70;30.60;;;;;;2252326;61;20455;-60
2023/11/07 10:00:35;0.00;0.00;0.62;0.00;0.00;0.62;3.43;2.50;;;21.70;30.60;;;;;;2252031;61;20907;-60
2023/11/07 10:03:21;0.00;0.00;0.62;0.00;0.00;0.62;3.07;2.70;;;21.70;30.60;;;;;;2252428;61;20366;-59
2023/11/07 10:06:06;0.00;0.00;0.62;0.00;0.00;0.62;3.90;2.93;;;21.70;30.60;;;;;;2252203;61;20365;-55
2023/11/07 10:08:55;0.00;0.00;0.62;0.00;0.00;0.62;5.80;3.23;;;21.70;30.60;;;;;;2252080;61;20403;-58
2023/11/07 10:11:45;0.00;0.00;0.62;0.00;0.00;0.62;2.90;2.50;;;21.70;30.70;;;;;;2254517;61;20402;-58
2023/11/07 10:14:33;0.00;0.00;0.62;0.00;0.00;0.62;4.00;2.80;;;21.80;30.70;;;;;;2252195;61;20763;-58
2023/11/07 10:17:22;0.00;0.00;0.62;0.00;0.00;0.62;3.97;2.90;;;21.80;30.80;;;;;;2252525;61;20878;-61
2023/11/07 10:20:11;0.00;0.00;0.62;0.00;0.00;0.62;3.37;2.77;;;21.80;30.80;;;;;;2251926;61;20413;-62
2023/11/07 10:22:57;0.00;0.00;0.62;0.00;0.00;0.62;3.70;2.43;;;21.80;30.70;;;;;;2252127;61;20370;-58
2023/11/07 10:25:49;0.00;0.00;0.62;0.00;0.00;0.62;3.70;2.73;;;21.80;30.70;;;;;;2252413;61;20393;-60
2023/11/07 10:28:34;0.00;0.00;0.62;0.00;0.00;0.62;3.37;2.20;;;21.80;30.80;;;;;;2251564;61;20374;-62
2023/11/07 10:31:20;0.00;0.00;0.62;0.00;0.00;0.62;3.10;2.07;;;21.90;30.80;;;;;;2252024;61;20433;-58
2023/11/07 10:34:16;0.00;0.00;0.62;0.00;0.00;0.62;2.90;2.60;;;21.90;30.80;;;;;;2252177;61;20787;-59
2023/11/07 10:37:00;0.00;0.00;0.62;0.00;0.00;0.62;3.87;2.63;;;21.90;30.80;;;;;;2252312;61;20430;-56
2023/11/07 10:39:56;0.00;0.00;0.62;0.00;0.00;0.62;3.07;2.13;;;21.90;30.70;;;;;;2252111;61;20405;-58
2023/11/07 10:42:47;0.00;0.00;0.62;0.00;0.00;0.62;3.70;2.40;;;21.90;30.70;;;;;;2252429;61;20359;-60
2023/11/07 10:45:35;0.00;0.00;0.62;0.00;0.00;0.62;2.23;1.67;;;22.00;30.80;;;;;;2252147;61;20410;-59
2023/11/07 10:48:21;0.00;0.00;0.62;0.00;0.00;0.62;3.30;2.30;;;22.00;30.80;;;;;;2251903;61;20366;-60
2023/11/07 10:51:08;0.00;0.00;0.62;0.00;0.00;0.62;3.00;2.37;;;22.00;31.50;;;;;;2252318;61;20382;-60
2023/11/07 10:53:53;0.00;0.00;0.62;0.00;0.00;0.62;3.83;2.27;;;22.00;30.70;;;;;;2252296;61;20823;-68